Time;durP1;ratioP1;P1;durP2;ratioP2;P2;SDS_P1;SDS_P2;PMS_P1;PMS_P2;Temp;Humidity;BMP_temperature;BMP_pressure;BME280_temperature;BME280_humidity;BME280_pressure;Samples;Min_cycle;Max_cycle;Signal;HPM_P1;HPM_P2
2023/05/13 10:50:25;;;;;;;;;11.25;11.25;;;;;;;;6398240;22;8757;-88
2023/05/13 10:52:53;;;;;;;;;15.00;15.00;;;;;;;;6390949;22;8822;-89
2023/05/13 10:56:06;;;;;;;;;;;;;;;;;;3101150;22;119887574;-88
2023/05/13 10:58:38;;;;;;;;;10.75;10.75;;;;;;;;6415214;22;13224;-88
2023/05/13 11:01:13;;;;;;;;;10.00;10.00;;;;;;;;6390699;22;8745;-88
2023/05/13 11:03:38;;;;;;;;;11.50;11.50;;;;;;;;6390920;22;8734;-88
2023/05/13 11:06:14;;;;;;;;;11.00;11.00;;;;;;;;6419431;22;8825;-88
2023/05/13 11:08:41;;;;;;;;;11.50;11.50;;;;;;;;6419256;22;8768;-88
2023/05/13 11:11:36;;;;;;;;;11.75;10.50;;;;;;;;6419826;22;8807;-88
2023/05/13 11:14:04;;;;;;;;;10.50;10.50;;;;;;;;6384160;22;8670;-89
2023/05/13 11:16:30;;;;;;;;;13.50;12.50;;;;;;;;6418893;22;9607;-88
2023/05/13 11:18:55;;;;;;;;;9.33;9.33;;;;;;;;6390178;22;8857;-88
2023/05/13 11:21:30;;;;;;;;;11.33;11.33;;;;;;;;6419642;22;8758;-88
2023/05/13 11:24:05;;;;;;;;;10.00;10.00;;;;;;;;6419103;22;8822;-88
2023/05/13 11:26:43;;;;;;;;;15.75;14.75;;;;;;;;6419851;22;8754;-87
2023/05/13 11:29:08;;;;;;;;;12.67;11.33;;;;;;;;6388149;22;8737;-88
2023/05/13 11:31:44;;;;;;;;;12.33;12.33;;;;;;;;6390396;22;8847;-89
2023/05/13 11:34:12;;;;;;;;;15.50;14.75;;;;;;;;6419772;22;8799;-88
2023/05/13 11:36:38;;;;;;;;;11.00;11.00;;;;;;;;6391000;22;8780;-89
2023/05/13 11:39:04;;;;;;;;;12.00;12.00;;;;;;;;6389439;22;8742;-89
2023/05/13 11:41:31;;;;;;;;;12.50;12.50;;;;;;;;6390778;22;8733;-89
2023/05/13 11:44:02;;;;;;;;;9.25;9.25;;;;;;;;6419880;22;8737;-89
2023/05/13 11:46:27;;;;;;;;;11.25;11.25;;;;;;;;6390468;22;8805;-89
2023/05/13 11:48:52;;;;;;;;;12.00;12.00;;;;;;;;6418495;22;8801;-89
2023/05/13 11:51:17;;;;;;;;;11.33;11.33;;;;;;;;6419725;22;8757;-89
2023/05/13 11:53:43;;;;;;;;;10.67;10.67;;;;;;;;6390273;22;8746;-89
2023/05/13 11:56:09;;;;;;;;;16.33;14.67;;;;;;;;6419788;22;8781;-89
2023/05/13 11:58:35;;;;;;;;;11.00;11.00;;;;;;;;6419470;22;8806;-89
2023/05/13 12:01:00;;;;;;;;;12.67;12.67;;;;;;;;6390894;22;8769;-88
2023/05/13 12:03:26;;;;;;;;;11.33;11.33;;;;;;;;6389728;22;8757;-88
2023/05/13 12:05:59;;;;;;;;;15.00;14.50;;;;;;;;6418470;22;8722;-88
2023/05/13 12:08:25;;;;;;;;;14.00;14.00;;;;;;;;6390362;22;8697;-89
2023/05/13 12:10:50;;;;;;;;;12.67;12.67;;;;;;;;6419627;22;8777;-89
2023/05/13 12:13:15;;;;;;;;;14.00;14.00;;;;;;;;6390226;22;8757;-89
2023/05/13 12:15:41;;;;;;;;;13.67;13.67;;;;;;;;6416454;22;8824;-90
2023/05/13 12:18:07;;;;;;;;;14.33;14.33;;;;;;;;6418658;22;8855;-88
2023/05/13 12:20:32;;;;;;;;;14.67;14.67;;;;;;;;6416354;22;8774;-88
2023/05/13 12:22:59;;;;;;;;;14.67;14.67;;;;;;;;6389447;22;8767;-89
2023/05/13 12:25:33;;;;;;;;;16.50;16.50;;;;;;;;6389757;22;8822;-88
2023/05/13 12:27:59;;;;;;;;;13.75;13.75;;;;;;;;6416971;22;8761;-89
2023/05/13 12:33:20;;;;;;;;;13.50;13.50;;;;;;;;6258143;22;8695;-89
2023/05/13 12:35:48;;;;;;;;;15.00;15.00;;;;;;;;6392952;22;8726;-89
2023/05/13 13:36:58;;;;;;;;;19.25;19.25;;;;;;;;6314358;22;8782;-89
2023/05/13 13:39:24;;;;;;;;;20.67;20.00;;;;;;;;6390289;22;8874;-89
2023/05/13 13:41:50;;;;;;;;;25.67;22.67;;;;;;;;6419594;22;8745;-89
2023/05/13 13:44:15;;;;;;;;;12.67;12.67;;;;;;;;6420199;22;8734;-89
2023/05/13 13:46:40;;;;;;;;;18.67;18.67;;;;;;;;6419896;22;8834;-89
2023/05/13 13:49:05;;;;;;;;;17.67;16.33;;;;;;;;6420189;22;8781;-89
2023/05/13 13:55:05;;;;;;;;;17.50;17.50;;;;;;;;5345096;22;16811472;-89
2023/05/13 14:02:01;;;;;;;;;;;;;;;;;;4208540;22;279079014;-90
2023/05/13 14:10:52;;;;;;;;;16.50;16.50;;;;;;;;1549625;22;261075470;-87
